Elm Grove, West Virginia
Current Conditions -  °F | °C
As of 3:08 PM on Sunday 25 Jan 2015 (Local Time) from KHLG Reporting Station
Light Snow Light Snow  
Wind Chill: -1°   Ceiling: 400
Heat Index:   Visibility: 1mi
Dew Point:   Wind: 5mph
Humidity: 92%   Direction: 70°ENE
Pressure: 29.75"   Gusts: NA
Location:  40.0729°N, 80.6524°W
Report Text: KHLG 252008Z 07004KT 1SM R03/5000VP6000FT -SN BR BKN004 BKN009 OVC025 01/00 A2975 RMK AO2 P0001 T00110000
Loading
Personal Weather Stations






























Interactive Weather Map New forecast layout! Learn more

10-Day Weather Forecast

Advertisements
Track Severe Weather on mobile